sensor_id;sensor_type;location;lat;lon;timestamp;P1;durP1;ratioP1;P2;durP2;ratioP2
80776;SDS011;70169;51.262;6.336;2023-05-20T00:02:12;5.73;;;2.13;;
80776;SDS011;70169;51.262;6.336;2023-05-20T00:05:54;3.73;;;1.80;;
80776;SDS011;70169;51.262;6.336;2023-05-20T00:09:38;3.87;;;2.00;;
80776;SDS011;70169;51.262;6.336;2023-05-20T00:13:20;5.50;;;2.17;;
80776;SDS011;70169;51.262;6.336;2023-05-20T00:17:03;3.38;;;2.10;;
80776;SDS011;70169;51.262;6.336;2023-05-20T00:20:45;3.63;;;1.90;;
80776;SDS011;70169;51.262;6.336;2023-05-20T00:24:27;3.67;;;2.13;;
80776;SDS011;70169;51.262;6.336;2023-05-20T00:28:10;3.93;;;2.03;;
80776;SDS011;70169;51.262;6.336;2023-05-20T00:31:52;4.27;;;2.23;;
80776;SDS011;70169;51.262;6.336;2023-05-20T00:35:34;7.05;;;2.20;;
80776;SDS011;70169;51.262;6.336;2023-05-20T00:39:17;5.75;;;1.83;;
80776;SDS011;70169;51.262;6.336;2023-05-20T00:42:59;4.27;;;2.60;;
80776;SDS011;70169;51.262;6.336;2023-05-20T00:46:42;5.28;;;1.67;;
80776;SDS011;70169;51.262;6.336;2023-05-20T00:50:25;3.85;;;1.80;;
80776;SDS011;70169;51.262;6.336;2023-05-20T00:54:08;4.60;;;1.88;;
80776;SDS011;70169;51.262;6.336;2023-05-20T00:57:51;6.50;;;2.42;;
80776;SDS011;70169;51.262;6.336;2023-05-20T01:01:35;4.63;;;1.90;;
80776;SDS011;70169;51.262;6.336;2023-05-20T01:05:17;3.90;;;2.10;;
80776;SDS011;70169;51.262;6.336;2023-05-20T01:08:59;4.87;;;2.17;;
80776;SDS011;70169;51.262;6.336;2023-05-20T01:12:42;3.97;;;1.93;;
80776;SDS011;70169;51.262;6.336;2023-05-20T01:16:29;5.05;;;2.00;;
80776;SDS011;70169;51.262;6.336;2023-05-20T01:20:14;5.90;;;2.33;;
80776;SDS011;70169;51.262;6.336;2023-05-20T01:23:59;4.88;;;2.38;;
80776;SDS011;70169;51.262;6.336;2023-05-20T01:27:42;4.30;;;2.20;;
80776;SDS011;70169;51.262;6.336;2023-05-20T01:31:26;4.18;;;1.98;;
80776;SDS011;70169;51.262;6.336;2023-05-20T01:35:14;5.97;;;2.08;;
80776;SDS011;70169;51.262;6.336;2023-05-20T01:38:57;3.97;;;2.50;;
80776;SDS011;70169;51.262;6.336;2023-05-20T01:42:42;5.28;;;2.28;;
80776;SDS011;70169;51.262;6.336;2023-05-20T01:46:25;4.90;;;2.28;;
80776;SDS011;70169;51.262;6.336;2023-05-20T01:50:07;3.73;;;2.10;;
80776;SDS011;70169;51.262;6.336;2023-05-20T01:53:50;4.00;;;2.05;;
80776;SDS011;70169;51.262;6.336;2023-05-20T01:57:32;6.73;;;2.57;;
80776;SDS011;70169;51.262;6.336;2023-05-20T02:01:14;4.33;;;2.00;;
80776;SDS011;70169;51.262;6.336;2023-05-20T02:04:57;5.50;;;2.20;;
80776;SDS011;70169;51.262;6.336;2023-05-20T02:08:39;3.60;;;2.07;;
80776;SDS011;70169;51.262;6.336;2023-05-20T02:12:21;3.60;;;2.23;;
80776;SDS011;70169;51.262;6.336;2023-05-20T02:16:04;4.20;;;2.10;;
80776;SDS011;70169;51.262;6.336;2023-05-20T02:19:46;3.75;;;2.20;;
80776;SDS011;70169;51.262;6.336;2023-05-20T02:23:29;8.73;;;2.10;;
80776;SDS011;70169;51.262;6.336;2023-05-20T02:27:12;3.95;;;2.08;;
80776;SDS011;70169;51.262;6.336;2023-05-20T02:30:54;4.10;;;1.90;;
80776;SDS011;70169;51.262;6.336;2023-05-20T02:34:36;4.73;;;2.07;;
80776;SDS011;70169;51.262;6.336;2023-05-20T02:38:20;5.63;;;2.38;;
80776;SDS011;70169;51.262;6.336;2023-05-20T02:42:02;5.50;;;2.88;;
80776;SDS011;70169;51.262;6.336;2023-05-20T02:45:45;3.92;;;2.00;;
80776;SDS011;70169;51.262;6.336;2023-05-20T02:49:28;4.65;;;2.22;;
80776;SDS011;70169;51.262;6.336;2023-05-20T02:53:10;5.27;;;2.43;;
80776;SDS011;70169;51.262;6.336;2023-05-20T02:56:52;5.90;;;2.73;;
80776;SDS011;70169;51.262;6.336;2023-05-20T03:00:35;5.27;;;2.50;;
80776;SDS011;70169;51.262;6.336;2023-05-20T03:04:21;6.07;;;2.30;;
80776;SDS011;70169;51.262;6.336;2023-05-20T03:08:07;5.03;;;2.53;;
80776;SDS011;70169;51.262;6.336;2023-05-20T03:11:50;3.70;;;2.17;;
80776;SDS011;70169;51.262;6.336;2023-05-20T03:15:33;4.00;;;2.17;;
80776;SDS011;70169;51.262;6.336;2023-05-20T03:19:16;4.07;;;2.10;;
80776;SDS011;70169;51.262;6.336;2023-05-20T03:22:58;5.30;;;2.53;;
80776;SDS011;70169;51.262;6.336;2023-05-20T03:26:41;6.30;;;2.58;;
80776;SDS011;70169;51.262;6.336;2023-05-20T03:30:25;6.95;;;2.63;;
80776;SDS011;70169;51.262;6.336;2023-05-20T03:34:07;6.15;;;2.60;;
80776;SDS011;70169;51.262;6.336;2023-05-20T03:37:50;4.73;;;2.33;;
80776;SDS011;70169;51.262;6.336;2023-05-20T03:41:34;6.57;;;2.75;;
80776;SDS011;70169;51.262;6.336;2023-05-20T03:45:16;4.63;;;2.60;;
80776;SDS011;70169;51.262;6.336;2023-05-20T03:48:59;5.80;;;2.33;;
80776;SDS011;70169;51.262;6.336;2023-05-20T03:52:42;6.85;;;2.88;;
80776;SDS011;70169;51.262;6.336;2023-05-20T03:56:25;8.02;;;3.75;;
80776;SDS011;70169;51.262;6.336;2023-05-20T04:00:08;10.00;;;2.77;;
80776;SDS011;70169;51.262;6.336;2023-05-20T04:07:35;8.40;;;2.73;;
80776;SDS011;70169;51.262;6.336;2023-05-20T04:11:17;7.53;;;2.97;;
80776;SDS011;70169;51.262;6.336;2023-05-20T04:15:00;5.33;;;2.90;;
80776;SDS011;70169;51.262;6.336;2023-05-20T04:18:42;6.00;;;2.70;;
80776;SDS011;70169;51.262;6.336;2023-05-20T04:22:26;5.53;;;2.60;;
80776;SDS011;70169;51.262;6.336;2023-05-20T04:26:09;5.17;;;2.30;;
80776;SDS011;70169;51.262;6.336;2023-05-20T04:29:51;4.83;;;2.60;;
80776;SDS011;70169;51.262;6.336;2023-05-20T04:33:35;7.18;;;2.90;;
80776;SDS011;70169;51.262;6.336;2023-05-20T04:37:19;6.72;;;3.20;;
80776;SDS011;70169;51.262;6.336;2023-05-20T04:41:01;5.60;;;2.53;;
80776;SDS011;70169;51.262;6.336;2023-05-20T04:44:44;6.93;;;2.70;;
80776;SDS011;70169;51.262;6.336;2023-05-20T04:48:27;5.03;;;3.33;;
80776;SDS011;70169;51.262;6.336;2023-05-20T04:52:09;9.57;;;3.13;;
80776;SDS011;70169;51.262;6.336;2023-05-20T04:55:55;5.93;;;2.80;;
80776;SDS011;70169;51.262;6.336;2023-05-20T04:59:38;4.90;;;2.75;;
80776;SDS011;70169;51.262;6.336;2023-05-20T05:03:20;5.30;;;3.23;;
80776;SDS011;70169;51.262;6.336;2023-05-20T05:07:03;5.72;;;2.40;;
80776;SDS011;70169;51.262;6.336;2023-05-20T05:10:46;8.43;;;2.95;;
80776;SDS011;70169;51.262;6.336;2023-05-20T05:14:28;6.40;;;2.77;;
80776;SDS011;70169;51.262;6.336;2023-05-20T05:18:10;5.80;;;2.70;;
80776;SDS011;70169;51.262;6.336;2023-05-20T05:21:53;4.43;;;2.72;;
80776;SDS011;70169;51.262;6.336;2023-05-20T05:25:37;6.00;;;3.03;;
80776;SDS011;70169;51.262;6.336;2023-05-20T05:29:19;5.80;;;2.53;;
80776;SDS011;70169;51.262;6.336;2023-05-20T05:33:01;5.33;;;3.10;;
80776;SDS011;70169;51.262;6.336;2023-05-20T05:36:44;6.80;;;3.07;;
80776;SDS011;70169;51.262;6.336;2023-05-20T05:40:26;8.07;;;3.03;;
80776;SDS011;70169;51.262;6.336;2023-05-20T05:44:08;7.93;;;3.10;;
80776;SDS011;70169;51.262;6.336;2023-05-20T05:47:51;6.00;;;3.07;;
80776;SDS011;70169;51.262;6.336;2023-05-20T05:51:33;4.23;;;2.63;;
80776;SDS011;70169;51.262;6.336;2023-05-20T05:55:15;5.60;;;2.83;;
80776;SDS011;70169;51.262;6.336;2023-05-20T05:58:59;5.85;;;3.33;;
80776;SDS011;70169;51.262;6.336;2023-05-20T06:02:41;5.57;;;3.47;;
80776;SDS011;70169;51.262;6.336;2023-05-20T06:06:24;5.60;;;3.22;;
80776;SDS011;70169;51.262;6.336;2023-05-20T06:10:06;6.33;;;3.50;;
80776;SDS011;70169;51.262;6.336;2023-05-20T06:13:49;5.90;;;3.13;;
80776;SDS011;70169;51.262;6.336;2023-05-20T06:17:31;5.97;;;3.30;;
80776;SDS011;70169;51.262;6.336;2023-05-20T06:21:14;9.43;;;3.47;;
80776;SDS011;70169;51.262;6.336;2023-05-20T06:24:56;7.18;;;3.08;;
80776;SDS011;70169;51.262;6.336;2023-05-20T06:32:23;5.90;;;3.50;;
80776;SDS011;70169;51.262;6.336;2023-05-20T06:36:06;6.63;;;3.40;;
80776;SDS011;70169;51.262;6.336;2023-05-20T06:39:48;6.20;;;3.27;;
80776;SDS011;70169;51.262;6.336;2023-05-20T06:43:34;6.32;;;3.35;;
80776;SDS011;70169;51.262;6.336;2023-05-20T06:47:17;7.90;;;3.70;;
80776;SDS011;70169;51.262;6.336;2023-05-20T06:50:59;6.25;;;3.70;;
80776;SDS011;70169;51.262;6.336;2023-05-20T06:54:42;7.03;;;3.53;;
80776;SDS011;70169;51.262;6.336;2023-05-20T06:58:25;7.28;;;3.90;;
80776;SDS011;70169;51.262;6.336;2023-05-20T07:02:08;6.50;;;3.58;;
80776;SDS011;70169;51.262;6.336;2023-05-20T07:05:50;5.40;;;2.97;;
80776;SDS011;70169;51.262;6.336;2023-05-20T07:09:32;6.50;;;2.90;;
80776;SDS011;70169;51.262;6.336;2023-05-20T07:13:15;6.77;;;3.30;;
80776;SDS011;70169;51.262;6.336;2023-05-20T07:16:58;5.35;;;3.40;;
80776;SDS011;70169;51.262;6.336;2023-05-20T07:20:40;5.83;;;3.47;;
80776;SDS011;70169;51.262;6.336;2023-05-20T07:24:23;5.43;;;3.30;;
80776;SDS011;70169;51.262;6.336;2023-05-20T07:28:05;5.60;;;2.90;;
80776;SDS011;70169;51.262;6.336;2023-05-20T07:31:47;5.63;;;3.10;;
80776;SDS011;70169;51.262;6.336;2023-05-20T07:35:29;5.70;;;3.10;;
80776;SDS011;70169;51.262;6.336;2023-05-20T07:39:12;4.47;;;2.80;;
80776;SDS011;70169;51.262;6.336;2023-05-20T07:42:55;6.88;;;3.08;;
80776;SDS011;70169;51.262;6.336;2023-05-20T07:46:37;7.60;;;3.00;;
80776;SDS011;70169;51.262;6.336;2023-05-20T07:50:20;6.90;;;3.33;;
80776;SDS011;70169;51.262;6.336;2023-05-20T07:54:02;5.57;;;3.87;;
80776;SDS011;70169;51.262;6.336;2023-05-20T07:57:45;6.53;;;3.27;;
80776;SDS011;70169;51.262;6.336;2023-05-20T08:01:27;10.60;;;3.80;;
80776;SDS011;70169;51.262;6.336;2023-05-20T08:05:10;6.05;;;3.33;;
80776;SDS011;70169;51.262;6.336;2023-05-20T08:08:52;4.80;;;3.17;;
80776;SDS011;70169;51.262;6.336;2023-05-20T08:12:35;6.75;;;2.90;;
80776;SDS011;70169;51.262;6.336;2023-05-20T08:16:17;6.60;;;3.60;;
80776;SDS011;70169;51.262;6.336;2023-05-20T08:19:59;6.50;;;3.50;;
80776;SDS011;70169;51.262;6.336;2023-05-20T08:23:42;5.32;;;3.20;;
80776;SDS011;70169;51.262;6.336;2023-05-20T08:27:25;5.70;;;2.93;;
80776;SDS011;70169;51.262;6.336;2023-05-20T08:31:07;5.23;;;3.30;;
80776;SDS011;70169;51.262;6.336;2023-05-20T08:34:50;6.25;;;3.72;;
80776;SDS011;70169;51.262;6.336;2023-05-20T08:38:33;5.60;;;3.35;;
80776;SDS011;70169;51.262;6.336;2023-05-20T08:42:18;8.23;;;3.50;;
80776;SDS011;70169;51.262;6.336;2023-05-20T08:46:02;5.65;;;3.58;;
80776;SDS011;70169;51.262;6.336;2023-05-20T08:49:50;4.55;;;3.03;;
80776;SDS011;70169;51.262;6.336;2023-05-20T08:53:32;5.40;;;3.53;;
80776;SDS011;70169;51.262;6.336;2023-05-20T08:57:15;6.70;;;3.27;;
80776;SDS011;70169;51.262;6.336;2023-05-20T09:00:57;7.65;;;3.67;;
80776;SDS011;70169;51.262;6.336;2023-05-20T09:04:40;7.85;;;4.07;;
80776;SDS011;70169;51.262;6.336;2023-05-20T09:08:23;6.95;;;4.35;;
80776;SDS011;70169;51.262;6.336;2023-05-20T09:12:09;6.82;;;3.75;;
80776;SDS011;70169;51.262;6.336;2023-05-20T09:15:52;10.00;;;4.07;;
80776;SDS011;70169;51.262;6.336;2023-05-20T09:19:34;9.40;;;4.07;;
80776;SDS011;70169;51.262;6.336;2023-05-20T09:23:18;8.20;;;3.67;;
80776;SDS011;70169;51.262;6.336;2023-05-20T09:27:01;6.07;;;3.92;;
80776;SDS011;70169;51.262;6.336;2023-05-20T09:30:44;6.00;;;3.70;;
80776;SDS011;70169;51.262;6.336;2023-05-20T09:34:30;7.65;;;3.88;;
80776;SDS011;70169;51.262;6.336;2023-05-20T09:38:12;7.22;;;4.43;;
80776;SDS011;70169;51.262;6.336;2023-05-20T09:42:06;9.55;;;4.75;;
80776;SDS011;70169;51.262;6.336;2023-05-20T09:45:56;10.23;;;4.05;;
80776;SDS011;70169;51.262;6.336;2023-05-20T09:49:40;8.65;;;4.28;;
80776;SDS011;70169;51.262;6.336;2023-05-20T09:53:26;6.97;;;4.32;;
80776;SDS011;70169;51.262;6.336;2023-05-20T09:57:09;9.02;;;5.55;;
80776;SDS011;70169;51.262;6.336;2023-05-20T10:00:52;11.57;;;4.78;;
80776;SDS011;70169;51.262;6.336;2023-05-20T10:04:35;7.75;;;4.70;;
80776;SDS011;70169;51.262;6.336;2023-05-20T10:08:38;6.97;;;4.85;;
80776;SDS011;70169;51.262;6.336;2023-05-20T10:12:57;6.80;;;4.38;;
80776;SDS011;70169;51.262;6.336;2023-05-20T10:16:52;7.43;;;4.32;;
80776;SDS011;70169;51.262;6.336;2023-05-20T10:20:48;6.43;;;4.45;;
80776;SDS011;70169;51.262;6.336;2023-05-20T10:28:28;9.50;;;4.72;;
80776;SDS011;70169;51.262;6.336;2023-05-20T10:32:27;6.93;;;4.35;;
80776;SDS011;70169;51.262;6.336;2023-05-20T10:36:29;7.75;;;4.75;;
80776;SDS011;70169;51.262;6.336;2023-05-20T10:40:15;8.80;;;5.18;;
80776;SDS011;70169;51.262;6.336;2023-05-20T10:44:01;8.48;;;5.65;;
80776;SDS011;70169;51.262;6.336;2023-05-20T10:47:54;7.60;;;5.85;;
80776;SDS011;70169;51.262;6.336;2023-05-20T10:51:38;9.70;;;5.35;;
80776;SDS011;70169;51.262;6.336;2023-05-20T10:55:20;6.75;;;4.80;;
80776;SDS011;70169;51.262;6.336;2023-05-20T10:59:04;10.63;;;5.55;;
80776;SDS011;70169;51.262;6.336;2023-05-20T11:02:47;13.07;;;5.22;;
80776;SDS011;70169;51.262;6.336;2023-05-20T11:06:30;8.65;;;5.22;;
80776;SDS011;70169;51.262;6.336;2023-05-20T11:10:14;7.90;;;5.40;;
80776;SDS011;70169;51.262;6.336;2023-05-20T11:13:56;8.10;;;5.67;;
80776;SDS011;70169;51.262;6.336;2023-05-20T11:17:50;9.63;;;5.47;;
80776;SDS011;70169;51.262;6.336;2023-05-20T11:21:33;9.25;;;5.50;;
80776;SDS011;70169;51.262;6.336;2023-05-20T11:25:15;7.43;;;5.30;;
80776;SDS011;70169;51.262;6.336;2023-05-20T11:28:59;8.35;;;5.43;;
80776;SDS011;70169;51.262;6.336;2023-05-20T11:32:43;8.88;;;5.65;;
80776;SDS011;70169;51.262;6.336;2023-05-20T11:36:25;8.95;;;6.35;;
80776;SDS011;70169;51.262;6.336;2023-05-20T11:43:57;9.80;;;5.82;;
80776;SDS011;70169;51.262;6.336;2023-05-20T11:47:40;10.02;;;6.50;;
80776;SDS011;70169;51.262;6.336;2023-05-20T11:51:23;9.30;;;5.47;;
80776;SDS011;70169;51.262;6.336;2023-05-20T11:55:11;9.95;;;5.75;;
80776;SDS011;70169;51.262;6.336;2023-05-20T11:58:56;8.70;;;5.57;;
80776;SDS011;70169;51.262;6.336;2023-05-20T12:02:40;8.65;;;6.72;;
80776;SDS011;70169;51.262;6.336;2023-05-20T12:06:22;12.13;;;5.63;;
80776;SDS011;70169;51.262;6.336;2023-05-20T12:10:05;8.70;;;5.70;;
80776;SDS011;70169;51.262;6.336;2023-05-20T12:13:48;8.48;;;5.93;;
80776;SDS011;70169;51.262;6.336;2023-05-20T12:17:42;8.80;;;6.07;;
80776;SDS011;70169;51.262;6.336;2023-05-20T12:21:34;10.52;;;5.55;;
80776;SDS011;70169;51.262;6.336;2023-05-20T12:25:17;9.75;;;6.32;;
80776;SDS011;70169;51.262;6.336;2023-05-20T12:29:02;8.77;;;5.80;;
80776;SDS011;70169;51.262;6.336;2023-05-20T12:32:45;7.63;;;5.17;;
80776;SDS011;70169;51.262;6.336;2023-05-20T12:36:28;9.45;;;5.68;;
80776;SDS011;70169;51.262;6.336;2023-05-20T12:40:10;9.57;;;5.70;;
80776;SDS011;70169;51.262;6.336;2023-05-20T12:43:53;9.63;;;6.07;;
80776;SDS011;70169;51.262;6.336;2023-05-20T12:47:36;9.23;;;5.63;;
80776;SDS011;70169;51.262;6.336;2023-05-20T12:51:18;7.70;;;5.17;;
80776;SDS011;70169;51.262;6.336;2023-05-20T12:55:02;7.95;;;5.57;;
80776;SDS011;70169;51.262;6.336;2023-05-20T12:58:46;8.32;;;4.90;;
80776;SDS011;70169;51.262;6.336;2023-05-20T13:02:29;9.70;;;5.82;;
80776;SDS011;70169;51.262;6.336;2023-05-20T13:06:11;8.43;;;5.60;;
80776;SDS011;70169;51.262;6.336;2023-05-20T13:09:54;7.43;;;5.50;;
80776;SDS011;70169;51.262;6.336;2023-05-20T13:13:36;9.00;;;5.67;;
80776;SDS011;70169;51.262;6.336;2023-05-20T13:17:18;8.17;;;5.63;;
80776;SDS011;70169;51.262;6.336;2023-05-20T13:21:01;9.53;;;6.27;;
80776;SDS011;70169;51.262;6.336;2023-05-20T13:24:43;6.70;;;5.77;;
80776;SDS011;70169;51.262;6.336;2023-05-20T13:28:25;8.30;;;6.17;;
80776;SDS011;70169;51.262;6.336;2023-05-20T13:32:08;11.13;;;6.22;;
80776;SDS011;70169;51.262;6.336;2023-05-20T13:35:50;7.43;;;5.70;;
80776;SDS011;70169;51.262;6.336;2023-05-20T13:39:33;7.23;;;6.33;;
80776;SDS011;70169;51.262;6.336;2023-05-20T13:43:15;8.77;;;6.23;;
80776;SDS011;70169;51.262;6.336;2023-05-20T13:46:57;9.17;;;6.67;;
80776;SDS011;70169;51.262;6.336;2023-05-20T13:50:39;9.33;;;6.57;;
80776;SDS011;70169;51.262;6.336;2023-05-20T13:54:22;8.80;;;6.03;;
80776;SDS011;70169;51.262;6.336;2023-05-20T13:58:04;12.30;;;6.87;;
80776;SDS011;70169;51.262;6.336;2023-05-20T14:01:49;9.55;;;5.90;;
80776;SDS011;70169;51.262;6.336;2023-05-20T14:05:32;7.97;;;5.90;;
80776;SDS011;70169;51.262;6.336;2023-05-20T14:09:14;7.55;;;5.18;;
80776;SDS011;70169;51.262;6.336;2023-05-20T14:12:57;7.47;;;5.13;;
80776;SDS011;70169;51.262;6.336;2023-05-20T14:16:39;7.95;;;5.07;;
80776;SDS011;70169;51.262;6.336;2023-05-20T14:20:22;7.23;;;5.33;;
80776;SDS011;70169;51.262;6.336;2023-05-20T14:24:05;5.68;;;4.43;;
80776;SDS011;70169;51.262;6.336;2023-05-20T14:27:48;7.85;;;4.85;;
80776;SDS011;70169;51.262;6.336;2023-05-20T14:31:31;7.85;;;4.30;;
80776;SDS011;70169;51.262;6.336;2023-05-20T14:35:13;8.27;;;4.50;;
80776;SDS011;70169;51.262;6.336;2023-05-20T14:38:57;5.50;;;4.15;;
80776;SDS011;70169;51.262;6.336;2023-05-20T14:42:39;5.97;;;3.70;;
80776;SDS011;70169;51.262;6.336;2023-05-20T14:46:22;5.53;;;3.90;;
80776;SDS011;70169;51.262;6.336;2023-05-20T14:50:05;7.57;;;4.77;;
80776;SDS011;70169;51.262;6.336;2023-05-20T14:53:48;5.40;;;3.88;;
80776;SDS011;70169;51.262;6.336;2023-05-20T14:57:30;7.73;;;4.70;;
80776;SDS011;70169;51.262;6.336;2023-05-20T15:01:12;6.00;;;4.53;;
80776;SDS011;70169;51.262;6.336;2023-05-20T15:04:54;6.17;;;4.43;;
80776;SDS011;70169;51.262;6.336;2023-05-20T15:08:37;11.33;;;4.40;;
80776;SDS011;70169;51.262;6.336;2023-05-20T15:12:19;8.43;;;5.03;;
80776;SDS011;70169;51.262;6.336;2023-05-20T15:16:01;6.33;;;4.70;;
80776;SDS011;70169;51.262;6.336;2023-05-20T15:19:44;7.20;;;4.53;;
80776;SDS011;70169;51.262;6.336;2023-05-20T15:23:26;5.10;;;3.60;;
80776;SDS011;70169;51.262;6.336;2023-05-20T15:27:09;6.23;;;4.53;;
80776;SDS011;70169;51.262;6.336;2023-05-20T15:30:52;5.72;;;3.63;;
80776;SDS011;70169;51.262;6.336;2023-05-20T15:34:36;6.90;;;3.85;;
80776;SDS011;70169;51.262;6.336;2023-05-20T15:38:18;5.10;;;3.30;;
80776;SDS011;70169;51.262;6.336;2023-05-20T15:42:00;8.40;;;3.57;;
80776;SDS011;70169;51.262;6.336;2023-05-20T15:45:44;9.10;;;5.10;;
80776;SDS011;70169;51.262;6.336;2023-05-20T15:49:28;6.78;;;4.43;;
80776;SDS011;70169;51.262;6.336;2023-05-20T15:53:12;11.00;;;6.77;;
80776;SDS011;70169;51.262;6.336;2023-05-20T15:56:55;13.43;;;6.63;;
80776;SDS011;70169;51.262;6.336;2023-05-20T16:00:38;18.52;;;10.13;;
80776;SDS011;70169;51.262;6.336;2023-05-20T16:04:21;8.18;;;4.20;;
80776;SDS011;70169;51.262;6.336;2023-05-20T16:08:04;5.93;;;4.20;;
80776;SDS011;70169;51.262;6.336;2023-05-20T16:11:47;6.95;;;3.88;;
80776;SDS011;70169;51.262;6.336;2023-05-20T16:15:29;5.73;;;4.27;;
80776;SDS011;70169;51.262;6.336;2023-05-20T16:19:16;9.18;;;4.05;;
80776;SDS011;70169;51.262;6.336;2023-05-20T16:22:58;6.40;;;3.60;;
80776;SDS011;70169;51.262;6.336;2023-05-20T16:26:41;7.40;;;3.50;;
80776;SDS011;70169;51.262;6.336;2023-05-20T16:30:23;7.33;;;4.10;;
80776;SDS011;70169;51.262;6.336;2023-05-20T16:34:05;4.67;;;3.67;;
80776;SDS011;70169;51.262;6.336;2023-05-20T16:37:48;5.95;;;3.67;;
80776;SDS011;70169;51.262;6.336;2023-05-20T16:41:30;5.30;;;3.77;;
80776;SDS011;70169;51.262;6.336;2023-05-20T16:45:12;6.03;;;4.17;;
80776;SDS011;70169;51.262;6.336;2023-05-20T16:48:55;5.37;;;3.90;;
80776;SDS011;70169;51.262;6.336;2023-05-20T16:52:37;7.38;;;4.55;;
80776;SDS011;70169;51.262;6.336;2023-05-20T16:56:20;5.03;;;3.63;;
80776;SDS011;70169;51.262;6.336;2023-05-20T17:00:03;8.85;;;3.80;;
80776;SDS011;70169;51.262;6.336;2023-05-20T17:03:49;4.85;;;3.70;;
80776;SDS011;70169;51.262;6.336;2023-05-20T17:07:31;5.97;;;4.27;;
80776;SDS011;70169;51.262;6.336;2023-05-20T17:11:14;6.55;;;3.75;;
80776;SDS011;70169;51.262;6.336;2023-05-20T17:14:56;6.83;;;4.33;;
80776;SDS011;70169;51.262;6.336;2023-05-20T17:18:39;6.27;;;4.53;;
80776;SDS011;70169;51.262;6.336;2023-05-20T17:22:21;6.00;;;3.78;;
80776;SDS011;70169;51.262;6.336;2023-05-20T17:26:04;6.85;;;4.78;;
80776;SDS011;70169;51.262;6.336;2023-05-20T17:29:47;6.78;;;4.45;;
80776;SDS011;70169;51.262;6.336;2023-05-20T17:33:29;5.90;;;4.80;;
80776;SDS011;70169;51.262;6.336;2023-05-20T17:37:12;6.22;;;4.53;;
80776;SDS011;70169;51.262;6.336;2023-05-20T17:40:54;6.53;;;4.73;;
80776;SDS011;70169;51.262;6.336;2023-05-20T17:44:37;5.47;;;3.92;;
80776;SDS011;70169;51.262;6.336;2023-05-20T17:48:19;6.97;;;4.60;;
80776;SDS011;70169;51.262;6.336;2023-05-20T17:52:02;5.75;;;4.38;;
80776;SDS011;70169;51.262;6.336;2023-05-20T17:55:44;6.20;;;5.47;;
80776;SDS011;70169;51.262;6.336;2023-05-20T17:59:28;7.47;;;4.45;;
80776;SDS011;70169;51.262;6.336;2023-05-20T18:03:10;6.43;;;4.40;;
80776;SDS011;70169;51.262;6.336;2023-05-20T18:06:52;6.10;;;4.43;;
80776;SDS011;70169;51.262;6.336;2023-05-20T18:10:34;5.87;;;4.30;;
80776;SDS011;70169;51.262;6.336;2023-05-20T18:14:17;6.87;;;4.60;;
80776;SDS011;70169;51.262;6.336;2023-05-20T18:18:02;7.25;;;4.55;;
80776;SDS011;70169;51.262;6.336;2023-05-20T18:21:45;6.50;;;4.47;;
80776;SDS011;70169;51.262;6.336;2023-05-20T18:25:27;8.93;;;4.27;;
80776;SDS011;70169;51.262;6.336;2023-05-20T18:29:09;6.57;;;4.73;;
80776;SDS011;70169;51.262;6.336;2023-05-20T18:32:53;8.05;;;4.03;;
80776;SDS011;70169;51.262;6.336;2023-05-20T18:36:36;11.73;;;7.55;;
80776;SDS011;70169;51.262;6.336;2023-05-20T18:40:19;6.70;;;4.50;;
80776;SDS011;70169;51.262;6.336;2023-05-20T18:44:01;5.68;;;4.28;;
80776;SDS011;70169;51.262;6.336;2023-05-20T18:47:44;5.80;;;4.37;;
80776;SDS011;70169;51.262;6.336;2023-05-20T18:51:26;9.55;;;5.10;;
80776;SDS011;70169;51.262;6.336;2023-05-20T18:55:13;7.80;;;5.10;;
80776;SDS011;70169;51.262;6.336;2023-05-20T18:58:56;8.18;;;5.35;;
80776;SDS011;70169;51.262;6.336;2023-05-20T19:02:39;6.65;;;4.63;;
80776;SDS011;70169;51.262;6.336;2023-05-20T19:06:22;6.55;;;4.40;;
80776;SDS011;70169;51.262;6.336;2023-05-20T19:10:05;12.27;;;4.28;;
80776;SDS011;70169;51.262;6.336;2023-05-20T19:13:48;5.97;;;4.25;;
80776;SDS011;70169;51.262;6.336;2023-05-20T19:17:30;7.23;;;4.20;;
80776;SDS011;70169;51.262;6.336;2023-05-20T19:21:13;5.37;;;3.63;;
80776;SDS011;70169;51.262;6.336;2023-05-20T19:24:55;5.70;;;3.87;;
80776;SDS011;70169;51.262;6.336;2023-05-20T19:28:37;6.20;;;4.00;;
80776;SDS011;70169;51.262;6.336;2023-05-20T19:32:20;5.87;;;4.27;;
80776;SDS011;70169;51.262;6.336;2023-05-20T19:36:02;5.77;;;4.30;;
80776;SDS011;70169;51.262;6.336;2023-05-20T19:39:44;6.32;;;4.20;;
80776;SDS011;70169;51.262;6.336;2023-05-20T19:43:27;6.57;;;4.53;;
80776;SDS011;70169;51.262;6.336;2023-05-20T19:47:11;7.15;;;4.22;;
80776;SDS011;70169;51.262;6.336;2023-05-20T19:50:53;6.77;;;4.60;;
80776;SDS011;70169;51.262;6.336;2023-05-20T19:54:35;5.90;;;4.13;;
80776;SDS011;70169;51.262;6.336;2023-05-20T19:58:18;6.37;;;4.10;;
80776;SDS011;70169;51.262;6.336;2023-05-20T20:02:00;6.63;;;4.70;;
80776;SDS011;70169;51.262;6.336;2023-05-20T20:05:43;7.75;;;4.63;;
80776;SDS011;70169;51.262;6.336;2023-05-20T20:09:26;5.90;;;3.85;;
80776;SDS011;70169;51.262;6.336;2023-05-20T20:13:09;6.80;;;4.43;;
80776;SDS011;70169;51.262;6.336;2023-05-20T20:16:51;6.93;;;4.10;;
80776;SDS011;70169;51.262;6.336;2023-05-20T20:20:34;7.97;;;4.53;;
80776;SDS011;70169;51.262;6.336;2023-05-20T20:24:20;6.63;;;4.60;;
80776;SDS011;70169;51.262;6.336;2023-05-20T20:28:05;7.03;;;5.50;;
80776;SDS011;70169;51.262;6.336;2023-05-20T20:31:48;6.63;;;4.40;;
80776;SDS011;70169;51.262;6.336;2023-05-20T20:35:30;9.30;;;5.63;;
80776;SDS011;70169;51.262;6.336;2023-05-20T20:39:13;9.77;;;5.38;;
80776;SDS011;70169;51.262;6.336;2023-05-20T20:42:59;9.07;;;4.95;;
80776;SDS011;70169;51.262;6.336;2023-05-20T20:46:45;7.72;;;5.47;;
80776;SDS011;70169;51.262;6.336;2023-05-20T20:50:31;9.50;;;6.35;;
80776;SDS011;70169;51.262;6.336;2023-05-20T20:54:14;9.82;;;5.60;;
80776;SDS011;70169;51.262;6.336;2023-05-20T20:57:57;9.57;;;5.20;;
80776;SDS011;70169;51.262;6.336;2023-05-20T21:01:43;10.73;;;5.20;;
80776;SDS011;70169;51.262;6.336;2023-05-20T21:05:26;7.47;;;5.15;;
80776;SDS011;70169;51.262;6.336;2023-05-20T21:09:10;7.72;;;5.57;;
80776;SDS011;70169;51.262;6.336;2023-05-20T21:12:55;8.20;;;5.75;;
80776;SDS011;70169;51.262;6.336;2023-05-20T21:16:38;9.15;;;5.35;;
80776;SDS011;70169;51.262;6.336;2023-05-20T21:20:22;10.13;;;5.47;;
80776;SDS011;70169;51.262;6.336;2023-05-20T21:24:05;8.57;;;5.83;;
80776;SDS011;70169;51.262;6.336;2023-05-20T21:27:47;11.80;;;5.90;;
80776;SDS011;70169;51.262;6.336;2023-05-20T21:31:30;9.17;;;6.87;;
80776;SDS011;70169;51.262;6.336;2023-05-20T21:35:12;11.20;;;6.00;;
80776;SDS011;70169;51.262;6.336;2023-05-20T21:38:54;9.20;;;5.83;;
80776;SDS011;70169;51.262;6.336;2023-05-20T21:42:36;9.73;;;6.27;;
80776;SDS011;70169;51.262;6.336;2023-05-20T21:46:19;8.23;;;5.27;;
80776;SDS011;70169;51.262;6.336;2023-05-20T21:50:01;10.50;;;6.43;;
80776;SDS011;70169;51.262;6.336;2023-05-20T21:53:44;11.00;;;7.03;;
80776;SDS011;70169;51.262;6.336;2023-05-20T21:57:26;10.77;;;6.03;;
80776;SDS011;70169;51.262;6.336;2023-05-20T22:01:09;9.93;;;6.80;;
80776;SDS011;70169;51.262;6.336;2023-05-20T22:04:51;11.73;;;7.30;;
80776;SDS011;70169;51.262;6.336;2023-05-20T22:08:33;10.73;;;6.27;;
80776;SDS011;70169;51.262;6.336;2023-05-20T22:12:16;11.23;;;7.43;;
80776;SDS011;70169;51.262;6.336;2023-05-20T22:15:58;9.33;;;6.57;;
80776;SDS011;70169;51.262;6.336;2023-05-20T22:19:42;9.15;;;6.57;;
80776;SDS011;70169;51.262;6.336;2023-05-20T22:23:25;15.05;;;6.82;;
80776;SDS011;70169;51.262;6.336;2023-05-20T22:27:08;10.43;;;7.18;;
80776;SDS011;70169;51.262;6.336;2023-05-20T22:30:50;10.73;;;6.77;;
80776;SDS011;70169;51.262;6.336;2023-05-20T22:34:32;13.00;;;7.47;;
80776;SDS011;70169;51.262;6.336;2023-05-20T22:38:15;14.67;;;7.43;;